Terminal Aerodrome Forecast
Issued by NWS Austin/San Antonio, TX

Home | Current Version | Previous Version | Text Only | Print | Product List | Glossary On
Versions: 1 2 3 4 5 6 7 8 9 10 11 12 13 14 15 16 17 18 19 20 21 22 23 24 25 26 27 28 29 30 31
000
FTUS44 KEWX 261301 AAB
TAFSAT
TAF AMD
KSAT 261301Z 2613/2718 17008KT P6SM VCSH BKN009 OVC015
     FM261600 16009KT P6SM OVC014
     FM261800 16010KT P6SM BKN025
     FM262100 17012KT P6SM VCTS SCT035CB BKN100
     FM270600 13010KT P6SM OVC015
     FM270900 16012KT P6SM OVC007
     FM271500 17013KT P6SM OVC015=

USA.gov is the U.S. government's official web portal to all federal, state and local government web resources and services.